Погода Овощнойна неделю

Ростовская область, Россия

20 - 26 мая
  • 20мая
    Сегодня
    +10°
    +24°
    Ясно и безоблачно
    ВремяПогодаТемператураВлажностьДавлениеВетер, м/сВероятность осадков
    00:00Ясно и безоблачно+11°C94 %761 мм1.9 м/с2 %
    03:00Облачно с прояснениями+9°C99 %761 мм1.4 м/с2 %
    06:00Небольшая облачность+10°C97 %762 мм1.6 м/с2 %
    09:00Ясно и безоблачно+19°C71 %762 мм2.2 м/с2 %
    12:00Практически безоблачно+22°C54 %762 мм2.7 м/с8 %
    15:00Ясно и безоблачно+23°C47 %762 мм2.0 м/с7 %
    18:00Ясно и безоблачно+22°C48 %762 мм1.6 м/с4 %
    21:00Ясно и безоблачно+16°C73 %763 мм2.6 м/с2 %
  • 21мая
    Вторник
    +11°
    +26°
    Облачно с прояснениями
    ВремяПогодаТемператураВлажностьДавлениеВетер, м/сВероятность осадков
    00:00Ясно и безоблачно+12°C86 %763 мм2.3 м/с2 %
    03:00Ясно и безоблачно+11°C87 %763 мм2.0 м/с2 %
    06:00Ясно и безоблачно+12°C82 %764 мм2.7 м/с2 %
    09:00Ясно и безоблачно+21°C55 %764 мм2.3 м/с2 %
    12:00Практически безоблачно+25°C40 %764 мм2.7 м/с2 %
    15:00Облачно с прояснениями+26°C33 %763 мм2.8 м/с2 %
    18:00Ясно и безоблачно+24°C42 %763 мм1.6 м/с1 %
    21:00Ясно и безоблачно+16°C60 %763 мм2.5 м/с2 %
  • 22мая
    Среда
    +11°
    +27°
    Ясно и безоблачно
    ВремяПогодаТемператураВлажностьДавлениеВетер, м/сВероятность осадков
    00:00Ясно и безоблачно+13°C73 %763 мм2.2 м/с2 %
    03:00Ясно и безоблачно+12°C72 %763 мм2.3 м/с2 %
    06:00Ясно и безоблачно+13°C68 %763 мм3.1 м/с2 %
    09:00Ясно и безоблачно+22°C48 %763 мм2.8 м/с2 %
    12:00Ясно и безоблачно+26°C29 %762 мм5.2 м/с2 %
    15:00Ясно и безоблачно+27°C27 %761 мм5.0 м/с2 %
    18:00Ясно и безоблачно+25°C36 %761 мм2.9 м/с2 %
    21:00Ясно и безоблачно+17°C52 %761 мм2.3 м/с2 %
  • 23мая
    Четверг
    +15°
    +28°
    Ясно и безоблачно
    ВремяПогодаТемператураВлажностьДавлениеВетер, м/сВероятность осадков
    00:00Ясно и безоблачно+14°C66 %761 мм2.5 м/с2 %
    03:00Ясно и безоблачно+13°C64 %761 мм2.8 м/с2 %
    06:00Ясно и безоблачно+13°C68 %761 мм3.2 м/с2 %
    09:00Ясно и безоблачно+22°C49 %761 мм3.1 м/с2 %
    12:00Ясно и безоблачно+27°C30 %761 мм5.9 м/с2 %
    15:00Ясно и безоблачно+27°C28 %760 мм5.3 м/с2 %
    18:00Ясно и безоблачно+25°C33 %760 мм3.7 м/с2 %
    21:00Ясно и безоблачно+18°C42 %761 мм3.1 м/с2 %
  • 24мая
    Пятница
    +13°
    +27°
    Ясно и безоблачно
    ВремяПогодаТемператураВлажностьДавлениеВетер, м/сВероятность осадков
    00:00Ясно и безоблачно+17°C45 %761 мм4.7 м/с2 %
    03:00Ясно и безоблачно+16°C61 %762 мм5.6 м/с2 %
    06:00Ясно и безоблачно+16°C70 %763 мм6.4 м/с2 %
    09:00Ясно и безоблачно+22°C58 %764 мм7.7 м/с2 %
    12:00Ясно и безоблачно+25°C41 %764 мм8.0 м/с2 %
    15:00Ясно и безоблачно+26°C36 %764 мм8.4 м/с8 %
    18:00Ясно и безоблачно+24°C35 %764 мм7.9 м/с3 %
    21:00Ясно и безоблачно+19°C29 %765 мм7.6 м/с2 %
Мы используем cookies
Соглашаюсь